東京理科大学Ⅰ部体育局航空部

このエントリーをはてなブックマークに追加

ようこそ、理科大航空部HPへ! ここでは、航空部に関する情報や、活動などをお知らせしています。


METAR・TAF

TOKYO INTERNATIONAL
Metar
RJTT 230730Z 08003KT 030V130 9999 FEW015 07/02 Q1018 BECMG 04008KT RMK 1CU015 A3009

07:30 UTC

Wind: 80° 3kt

Visibility: 9999 m

Sky: FEW 1500 ft

Temp: 7 deg C / 44.6 deg F

Dewpoint: 2 deg C / 35.6 deg F

Pressure: 1018 hPa

TAF
TAF RJTT 230506Z 2306/2412 01008KT 9999 FEW030 BECMG 2321/2400 12008KT BECMG 2400/2403 18016KT
NARITA INTERNATIONAL
Metar
RJAA 230730Z 06006KT 9999 FEW020 07/02 Q1018 BECMG 05006KT RMK 1CU020 A3008

07:30 UTC

Wind: 60° 6kt

Visibility: 9999 m

Sky: FEW 2000 ft

Temp: 7 deg C / 44.6 deg F

Dewpoint: 2 deg C / 35.6 deg F

Pressure: 1018 hPa

TAF
TAF RJAA 230506Z 2306/2412 02008KT 9999 FEW015 SCT030 TEMPO 2311/2317 4000 BR BECMG 2400/2403 22012KT